Time;durP1;ratioP1;P1;durP2;ratioP2;P2;SDS_P1;SDS_P2;PMS_P1;PMS_P2;Temp;Humidity;BMP_temperature;BMP_pressure;BME280_temperature;BME280_humidity;BME280_pressure;Samples;Min_cycle;Max_cycle;Signal;HPM_P1;HPM_P2
2023/03/27 00:01:37;;;;;;;5.38;2.17;;;;;;;;;;5095264;28;20082;-76
2023/03/27 00:04:08;;;;;;;5.18;2.13;;;;;;;;;;5078128;28;20059;-75
2023/03/27 00:06:47;;;;;;;3.97;2.00;;;;;;;;;;5095677;28;20521;-75
2023/03/27 00:09:18;;;;;;;7.85;1.92;;;;;;;;;;5094733;28;20051;-75
2023/03/27 00:11:51;;;;;;;7.38;2.20;;;;;;;;;;5096650;28;20047;-77
2023/03/27 00:14:22;;;;;;;6.78;2.30;;;;;;;;;;5092381;28;20048;-74
2023/03/27 00:16:52;;;;;;;6.45;2.45;;;;;;;;;;5078058;28;20039;-74
2023/03/27 00:19:23;;;;;;;11.60;2.58;;;;;;;;;;5095303;28;20040;-74
2023/03/27 00:21:55;;;;;;;8.68;2.45;;;;;;;;;;5094773;28;20066;-75
2023/03/27 00:24:25;;;;;;;6.13;2.55;;;;;;;;;;5096151;28;20364;-75
2023/03/27 00:26:57;;;;;;;10.32;2.72;;;;;;;;;;5104104;28;20051;-75
2023/03/27 00:29:27;;;;;;;12.80;3.15;;;;;;;;;;5102126;28;20044;-76
2023/03/27 00:31:59;;;;;;;5.28;2.40;;;;;;;;;;5096905;28;20055;-75
2023/03/27 00:34:30;;;;;;;7.00;2.58;;;;;;;;;;5097025;28;20494;-75
2023/03/27 00:37:03;;;;;;;7.43;2.42;;;;;;;;;;5078385;28;20069;-76
2023/03/27 00:39:34;;;;;;;5.47;2.60;;;;;;;;;;5082491;28;20047;-75
2023/03/27 00:42:05;;;;;;;3.50;2.20;;;;;;;;;;5106462;28;20047;-75
2023/03/27 00:44:36;;;;;;;7.15;2.30;;;;;;;;;;5089395;28;20044;-75
2023/03/27 00:47:11;;;;;;;3.95;1.88;;;;;;;;;;5106955;28;20043;-76
2023/03/27 00:49:42;;;;;;;4.68;2.20;;;;;;;;;;5106471;28;20058;-75
2023/03/27 00:52:15;;;;;;;6.78;2.78;;;;;;;;;;5106832;28;20410;-76
2023/03/27 00:54:47;;;;;;;8.02;2.63;;;;;;;;;;5106396;28;20036;-74
2023/03/27 00:57:20;;;;;;;11.45;2.03;;;;;;;;;;5107621;28;20391;-76
2023/03/27 00:59:54;;;;;;;7.15;2.25;;;;;;;;;;5106648;28;20044;-74
2023/03/27 01:02:26;;;;;;;6.30;2.60;;;;;;;;;;5088308;28;20060;-74
2023/03/27 01:04:57;;;;;;;9.45;2.80;;;;;;;;;;5089511;28;20047;-75
2023/03/27 01:07:27;;;;;;;6.88;2.85;;;;;;;;;;5103390;28;20054;-76
2023/03/27 01:09:57;;;;;;;7.97;2.08;;;;;;;;;;5074641;28;20059;-75
2023/03/27 01:12:44;;;;;;;9.55;2.65;;;;;;;;;;5089425;28;20056;-75
2023/03/27 01:15:36;;;;;;;5.00;2.53;;;;;;;;;;5072150;28;20071;-76
2023/03/27 01:18:23;;;;;;;5.90;2.10;;;;;;;;;;5090393;28;20044;-76
2023/03/27 01:21:29;;;;;;;5.93;2.40;;;;;;;;;;5090460;28;20063;-77
2023/03/27 01:24:16;;;;;;;;;;;;;;;;;;5021094;28;20055;-76
2023/03/27 01:27:15;;;;;;;7.57;2.53;;;;;;;;;;5071967;28;19924;-77
2023/03/27 01:30:05;;;;;;;4.80;2.10;;;;;;;;;;5064709;28;20055;-79
2023/03/27 01:32:56;;;;;;;6.47;2.10;;;;;;;;;;5071254;28;20040;-79
2023/03/27 01:35:28;;;;;;;4.43;1.90;;;;;;;;;;5089896;28;20510;-78
2023/03/27 01:38:32;;;;;;;8.43;2.05;;;;;;;;;;5071820;28;20056;-80
2023/03/27 01:41:11;;;;;;;5.22;2.13;;;;;;;;;;5033219;28;20077;-76
2023/03/27 01:43:57;;;;;;;9.00;2.08;;;;;;;;;;5089580;28;20510;-78
2023/03/27 01:46:35;;;;;;;8.60;2.08;;;;;;;;;;5071678;28;20044;-76
2023/03/27 01:49:12;;;;;;;8.20;2.22;;;;;;;;;;5071339;28;20059;-79
2023/03/27 01:51:57;;;;;;;7.55;2.25;;;;;;;;;;5089910;28;20040;-78
2023/03/27 01:54:43;;;;;;;5.15;2.30;;;;;;;;;;5090120;28;20040;-78
2023/03/27 01:57:23;;;;;;;5.32;2.10;;;;;;;;;;5071365;28;20040;-80
2023/03/27 02:00:11;;;;;;;3.08;1.80;;;;;;;;;;5071266;28;20055;-78
2023/03/27 02:03:01;;;;;;;5.32;1.90;;;;;;;;;;5092412;28;20059;-77
2023/03/27 02:05:55;;;;;;;5.68;1.80;;;;;;;;;;5071026;28;20048;-78
2023/03/27 02:08:34;;;;;;;5.85;1.92;;;;;;;;;;5070598;28;20059;-80
2023/03/27 02:11:23;;;;;;;6.80;2.13;;;;;;;;;;5070448;28;20063;-80
2023/03/27 02:14:02;;;;;;;6.88;1.80;;;;;;;;;;5071181;28;20059;-78
2023/03/27 02:16:36;;;;;;;8.10;2.17;;;;;;;;;;5071004;28;20408;-76
2023/03/27 02:19:18;;;;;;;9.30;1.95;;;;;;;;;;5090153;28;20051;-76
2023/03/27 02:21:49;;;;;;;6.77;1.57;;;;;;;;;;5068884;28;20052;-78
2023/03/27 02:24:21;;;;;;;7.63;1.83;;;;;;;;;;5069751;28;20695;-77
2023/03/27 02:27:05;;;;;;;5.60;1.63;;;;;;;;;;5070368;28;20052;-77
2023/03/27 02:29:47;;;;;;;6.20;2.05;;;;;;;;;;5070479;28;20052;-78
2023/03/27 02:32:34;;;;;;;8.80;1.98;;;;;;;;;;5071308;28;20059;-75
2023/03/27 02:35:44;;;;;;;5.10;1.50;;;;;;;;;;5070465;28;20059;-79
2023/03/27 02:38:40;;;;;;;6.00;1.60;;;;;;;;;;5070144;28;20067;-76
2023/03/27 02:41:16;;;;;;;8.30;2.13;;;;;;;;;;5069473;28;20063;-78
2023/03/27 02:44:09;;;;;;;13.93;2.15;;;;;;;;;;5093909;28;20056;-78
2023/03/27 02:47:13;;;;;;;5.03;1.98;;;;;;;;;;5070589;28;20059;-79
2023/03/27 02:49:55;;;;;;;10.23;1.60;;;;;;;;;;5070535;28;20059;-78
2023/03/27 02:52:54;;;;;;;4.07;2.08;;;;;;;;;;5069774;28;20059;-79
2023/03/27 02:55:33;;;;;;;8.13;2.17;;;;;;;;;;5069635;28;20051;-80
2023/03/27 02:58:19;;;;;;;5.45;1.80;;;;;;;;;;5070219;28;20052;-80
2023/03/27 03:01:00;;;;;;;5.88;2.63;;;;;;;;;;5070006;28;20070;-76
2023/03/27 03:03:42;;;;;;;5.38;2.10;;;;;;;;;;5090429;28;20048;-79
2023/03/27 03:06:29;;;;;;;5.97;1.90;;;;;;;;;;5070097;28;20644;-79
2023/03/27 03:09:05;;;;;;;8.48;1.80;;;;;;;;;;5070686;28;20059;-76
2023/03/27 03:11:47;;;;;;;8.50;2.05;;;;;;;;;;5088691;28;20036;-78
2023/03/27 03:14:22;;;;;;;5.43;1.67;;;;;;;;;;5088195;28;20048;-77
2023/03/27 03:16:52;;;;;;;7.70;1.73;;;;;;;;;;5069315;28;20055;-78
2023/03/27 03:19:23;;;;;;;4.85;1.95;;;;;;;;;;5087769;28;20419;-78
2023/03/27 03:21:55;;;;;;;4.82;2.17;;;;;;;;;;5069526;28;20051;-78
2023/03/27 03:24:26;;;;;;;8.77;1.98;;;;;;;;;;5087787;28;20055;-78
2023/03/27 03:26:58;;;;;;;8.95;2.00;;;;;;;;;;5069226;28;20044;-77
2023/03/27 03:29:34;;;;;;;7.30;1.80;;;;;;;;;;5069052;28;20048;-79
2023/03/27 03:32:15;;;;;;;5.88;1.80;;;;;;;;;;5069424;28;20051;-79
2023/03/27 03:34:46;;;;;;;8.23;1.80;;;;;;;;;;5069670;28;20098;-77
2023/03/27 03:37:16;;;;;;;6.85;1.83;;;;;;;;;;5069328;28;20060;-77
2023/03/27 03:39:47;;;;;;;10.77;1.90;;;;;;;;;;5087507;28;20048;-77
2023/03/27 03:42:19;;;;;;;4.88;1.77;;;;;;;;;;5068488;28;20051;-78
2023/03/27 03:44:53;;;;;;;6.53;2.22;;;;;;;;;;5087591;28;20051;-78
2023/03/27 03:47:24;;;;;;;8.48;1.80;;;;;;;;;;5069252;28;20056;-77
2023/03/27 03:49:55;;;;;;;11.00;2.17;;;;;;;;;;5068919;28;20048;-77
2023/03/27 03:52:29;;;;;;;5.70;1.77;;;;;;;;;;5069501;28;20052;-77
2023/03/27 03:55:05;;;;;;;8.00;1.85;;;;;;;;;;5069108;28;20052;-78
2023/03/27 03:57:35;;;;;;;4.90;1.65;;;;;;;;;;5087965;28;20376;-76
2023/03/27 04:00:11;;;;;;;4.10;2.22;;;;;;;;;;5068796;28;20044;-79
2023/03/27 04:02:44;;;;;;;5.53;2.10;;;;;;;;;;5092395;28;20064;-76
2023/03/27 04:05:17;;;;;;;8.00;3.50;;;;;;;;;;5068637;28;20052;-79
2023/03/27 04:07:51;;;;;;;5.93;2.10;;;;;;;;;;5068962;28;20052;-77
2023/03/27 04:10:57;;;;;;;;;;;;;;;;;;4985921;28;20050;-78
2023/03/27 04:13:56;;;;;;;7.18;2.15;;;;;;;;;;5069690;28;19931;-78
2023/03/27 04:16:33;;;;;;;12.38;2.20;;;;;;;;;;5068849;28;20545;-79
2023/03/27 04:19:12;;;;;;;7.47;2.13;;;;;;;;;;5068811;28;20052;-79
2023/03/27 04:21:46;;;;;;;8.02;2.03;;;;;;;;;;5068955;28;20067;-78
2023/03/27 04:24:17;;;;;;;7.18;1.98;;;;;;;;;;5068615;28;20067;-76
2023/03/27 04:26:52;;;;;;;8.43;2.08;;;;;;;;;;5067926;28;20511;-77
2023/03/27 04:29:25;;;;;;;2.70;1.67;;;;;;;;;;5086705;28;20063;-77
2023/03/27 04:32:01;;;;;;;5.00;1.98;;;;;;;;;;5088570;28;20048;-78
2023/03/27 04:34:41;;;;;;;7.68;1.90;;;;;;;;;;5090491;28;20060;-77
2023/03/27 04:37:31;;;;;;;6.22;2.30;;;;;;;;;;5068386;28;20048;-78
2023/03/27 04:40:12;;;;;;;8.40;1.67;;;;;;;;;;5068054;28;20052;-79
2023/03/27 04:42:45;;;;;;;12.10;2.40;;;;;;;;;;5068406;28;20422;-79
2023/03/27 04:45:19;;;;;;;4.35;1.88;;;;;;;;;;5068106;28;20055;-78
2023/03/27 04:47:51;;;;;;;7.32;2.00;;;;;;;;;;5067865;28;20052;-80
2023/03/27 04:50:22;;;;;;;10.13;2.03;;;;;;;;;;5068326;28;20067;-80
2023/03/27 04:52:57;;;;;;;6.63;1.88;;;;;;;;;;5086329;28;20048;-77
2023/03/27 04:55:36;;;;;;;4.78;2.03;;;;;;;;;;5068236;28;20067;-78
2023/03/27 04:58:11;;;;;;;5.57;1.98;;;;;;;;;;5087051;28;20487;-78
2023/03/27 05:00:42;;;;;;;7.18;2.70;;;;;;;;;;5068108;28;20410;-78
2023/03/27 05:03:36;;;;;;;7.03;2.00;;;;;;;;;;5084054;28;20052;-78
2023/03/27 05:06:16;;;;;;;11.02;2.30;;;;;;;;;;5068035;28;20048;-79
2023/03/27 05:08:47;;;;;;;7.80;2.10;;;;;;;;;;5068088;28;20048;-77
2023/03/27 05:11:25;;;;;;;7.47;2.20;;;;;;;;;;5068587;28;20059;-76
2023/03/27 05:13:57;;;;;;;12.05;2.08;;;;;;;;;;5086922;28;20040;-78
2023/03/27 05:16:30;;;;;;;9.35;2.40;;;;;;;;;;5068151;28;20059;-77
2023/03/27 05:19:02;;;;;;;7.47;1.98;;;;;;;;;;5067783;28;20549;-78
2023/03/27 05:21:43;;;;;;;6.35;1.83;;;;;;;;;;5067682;28;20048;-78
2023/03/27 05:24:14;;;;;;;12.82;2.25;;;;;;;;;;5050855;28;20070;-78
2023/03/27 05:26:47;;;;;;;7.95;2.30;;;;;;;;;;5067200;28;20510;-79
2023/03/27 05:29:18;;;;;;;11.82;2.05;;;;;;;;;;5068024;28;20056;-79
2023/03/27 05:31:56;;;;;;;7.25;2.10;;;;;;;;;;5067742;28;20055;-80
2023/03/27 05:34:41;;;;;;;12.20;2.20;;;;;;;;;;5068265;28;20505;-76
2023/03/27 05:37:15;;;;;;;7.47;2.00;;;;;;;;;;5068010;28;20056;-78
2023/03/27 05:40:09;;;;;;;10.48;2.42;;;;;;;;;;5086005;28;20052;-77
2023/03/27 05:42:44;;;;;;;9.63;2.30;;;;;;;;;;5085275;28;20052;-77
2023/03/27 05:45:15;;;;;;;11.23;2.53;;;;;;;;;;5068010;28;20064;-78
2023/03/27 05:47:46;;;;;;;5.18;2.60;;;;;;;;;;5067697;28;20056;-78
2023/03/27 05:50:18;;;;;;;9.18;2.08;;;;;;;;;;5067239;28;20052;-77
2023/03/27 05:52:58;;;;;;;9.40;2.13;;;;;;;;;;5066543;28;20580;-79
2023/03/27 05:55:34;;;;;;;6.10;2.35;;;;;;;;;;5068578;28;20059;-79
2023/03/27 05:58:08;;;;;;;7.85;2.40;;;;;;;;;;5071115;28;20051;-76
2023/03/27 06:00:42;;;;;;;4.30;2.30;;;;;;;;;;5071022;28;20052;-77
2023/03/27 06:03:19;;;;;;;6.28;2.10;;;;;;;;;;5071355;28;20055;-77
2023/03/27 06:06:09;;;;;;;10.60;2.20;;;;;;;;;;5070868;28;20526;-77
2023/03/27 06:08:44;;;;;;;7.22;2.22;;;;;;;;;;5055649;28;20047;-77
2023/03/27 06:11:16;;;;;;;10.82;2.67;;;;;;;;;;5089294;28;20063;-77
2023/03/27 06:13:48;;;;;;;5.88;2.10;;;;;;;;;;5070997;28;20052;-80
2023/03/27 06:16:24;;;;;;;8.80;2.60;;;;;;;;;;5071122;28;20047;-79
2023/03/27 06:19:15;;;;;;;9.32;2.28;;;;;;;;;;5088765;28;20048;-76
2023/03/27 06:21:51;;;;;;;13.23;2.35;;;;;;;;;;5070751;28;20056;-79
2023/03/27 06:24:22;;;;;;;13.70;2.92;;;;;;;;;;5070502;28;20055;-80
2023/03/27 06:26:53;;;;;;;7.18;2.22;;;;;;;;;;5071155;28;20060;-80
2023/03/27 06:29:28;;;;;;;4.95;1.92;;;;;;;;;;5071203;28;20860;-77
2023/03/27 06:32:00;;;;;;;15.00;2.25;;;;;;;;;;5070532;28;20052;-77
2023/03/27 06:34:36;;;;;;;5.38;2.20;;;;;;;;;;5069920;28;20539;-79
2023/03/27 06:37:24;;;;;;;11.90;2.15;;;;;;;;;;5070483;28;20074;-78
2023/03/27 06:39:56;;;;;;;4.97;2.30;;;;;;;;;;5054434;28;20542;-77
2023/03/27 06:42:27;;;;;;;8.32;1.98;;;;;;;;;;5070912;28;20110;-76
2023/03/27 06:45:21;;;;;;;9.52;2.25;;;;;;;;;;5088319;28;20056;-77
2023/03/27 06:48:10;;;;;;;7.82;2.30;;;;;;;;;;5091851;28;20048;-78
2023/03/27 06:50:53;;;;;;;9.68;2.20;;;;;;;;;;5069880;28;20048;-80
2023/03/27 06:53:25;;;;;;;7.13;2.20;;;;;;;;;;5069949;28;20060;-78
2023/03/27 06:55:57;;;;;;;13.43;2.03;;;;;;;;;;5070223;28;20062;-77
2023/03/27 06:58:42;;;;;;;13.20;2.65;;;;;;;;;;5070133;28;20062;-77
2023/03/27 07:01:13;;;;;;;8.18;2.35;;;;;;;;;;5070091;28;20503;-77
2023/03/27 07:04:05;;;;;;;10.77;2.20;;;;;;;;;;5070247;28;20060;-77
2023/03/27 07:06:52;;;;;;;4.43;1.98;;;;;;;;;;5068899;28;20051;-78
2023/03/27 07:09:23;;;;;;;11.13;1.95;;;;;;;;;;5070201;28;20052;-76
2023/03/27 07:12:03;;;;;;;10.80;2.33;;;;;;;;;;5070164;28;20044;-78
2023/03/27 07:14:35;;;;;;;8.38;2.30;;;;;;;;;;5069775;28;20052;-77
2023/03/27 07:17:07;;;;;;;9.38;1.92;;;;;;;;;;5070304;28;20052;-76
2023/03/27 07:19:52;;;;;;;5.97;2.17;;;;;;;;;;5069033;28;20056;-78
2023/03/27 07:22:27;;;;;;;14.23;2.47;;;;;;;;;;5069184;28;20056;-78
2023/03/27 07:25:05;;;;;;;9.55;2.53;;;;;;;;;;5069316;28;20054;-79
2023/03/27 07:27:41;;;;;;;12.80;2.35;;;;;;;;;;5069622;28;20059;-78
2023/03/27 07:30:13;;;;;;;12.82;4.18;;;;;;;;;;5069465;28;20510;-78
2023/03/27 07:32:45;;;;;;;8.52;2.60;;;;;;;;;;5069329;28;20055;-76
2023/03/27 07:35:17;;;;;;;2.63;2.05;;;;;;;;;;5087680;28;20067;-79
2023/03/27 07:38:12;;;;;;;4.78;1.83;;;;;;;;;;5067868;28;20059;-77
2023/03/27 07:41:05;;;;;;;9.25;2.05;;;;;;;;;;5087523;28;20052;-77
2023/03/27 07:43:45;;;;;;;10.70;2.33;;;;;;;;;;5092907;28;20063;-79
2023/03/27 07:46:16;;;;;;;11.32;3.13;;;;;;;;;;5068886;28;20055;-77
2023/03/27 07:48:46;;;;;;;9.88;2.45;;;;;;;;;;5087978;28;20048;-76
2023/03/27 07:51:21;;;;;;;10.65;2.42;;;;;;;;;;5069400;28;20561;-76
2023/03/27 07:53:57;;;;;;;9.52;2.50;;;;;;;;;;5087855;28;20055;-79
2023/03/27 07:56:34;;;;;;;9.73;2.63;;;;;;;;;;5069065;28;20056;-76
2023/03/27 07:59:26;;;;;;;11.20;2.35;;;;;;;;;;5035736;28;20052;-76
2023/03/27 08:02:04;;;;;;;5.78;2.20;;;;;;;;;;5068209;28;20692;-77
2023/03/27 08:04:38;;;;;;;8.15;2.70;;;;;;;;;;5069237;28;20056;-78
2023/03/27 08:07:10;;;;;;;8.05;2.38;;;;;;;;;;5069029;28;20048;-77
2023/03/27 08:09:43;;;;;;;4.70;1.77;;;;;;;;;;5068537;28;20055;-77
2023/03/27 08:12:14;;;;;;;7.20;2.60;;;;;;;;;;5087025;28;20048;-77
2023/03/27 08:14:55;;;;;;;9.25;2.40;;;;;;;;;;5068753;28;20052;-76
2023/03/27 08:17:30;;;;;;;9.40;2.53;;;;;;;;;;5068715;28;20403;-78
2023/03/27 08:20:03;;;;;;;16.73;2.60;;;;;;;;;;5068174;28;20044;-77
2023/03/27 08:22:38;;;;;;;9.35;3.00;;;;;;;;;;5068285;28;20059;-76
2023/03/27 08:25:49;;;;;;;12.05;2.38;;;;;;;;;;4985344;28;20062;-77
2023/03/27 08:28:26;;;;;;;8.32;3.05;;;;;;;;;;5058680;28;20044;-78
2023/03/27 08:30:57;;;;;;;7.65;2.33;;;;;;;;;;5068668;28;20051;-78
2023/03/27 08:33:35;;;;;;;18.92;2.60;;;;;;;;;;5068323;28;20056;-77
2023/03/27 08:36:10;;;;;;;7.68;2.85;;;;;;;;;;5068357;28;20529;-76
2023/03/27 08:38:43;;;;;;;10.73;2.70;;;;;;;;;;5068207;28;20059;-77
2023/03/27 08:41:29;;;;;;;11.70;2.38;;;;;;;;;;5068139;28;20427;-76
2023/03/27 08:44:25;;;;;;;11.75;2.65;;;;;;;;;;5086186;28;20052;-79
2023/03/27 08:47:03;;;;;;;5.93;3.00;;;;;;;;;;5086072;28;20075;-76
2023/03/27 08:49:50;;;;;;;9.05;2.40;;;;;;;;;;5069999;28;20047;-77
2023/03/27 08:52:30;;;;;;;11.13;2.75;;;;;;;;;;5068632;28;20040;-79
2023/03/27 08:55:17;;;;;;;11.38;2.42;;;;;;;;;;5068637;28;20058;-77
2023/03/27 08:57:56;;;;;;;8.02;2.65;;;;;;;;;;5082834;28;20052;-78
2023/03/27 09:00:40;;;;;;;7.93;2.30;;;;;;;;;;5068362;28;20067;-77
2023/03/27 09:03:37;;;;;;;12.15;2.90;;;;;;;;;;5068268;28;20044;-77
2023/03/27 09:06:28;;;;;;;10.65;2.50;;;;;;;;;;5086436;28;20043;-78
2023/03/27 09:09:34;;;;;;;9.60;2.33;;;;;;;;;;5067823;28;20063;-77
2023/03/27 09:12:39;;;;;;;5.75;1.92;;;;;;;;;;5068157;28;20048;-75
2023/03/27 09:15:20;;;;;;;7.03;2.60;;;;;;;;;;5026892;28;20052;-78
2023/03/27 09:18:00;;;;;;;7.38;2.22;;;;;;;;;;5067775;28;20059;-77
2023/03/27 09:20:44;;;;;;;5.03;2.42;;;;;;;;;;5067903;28;20048;-77
2023/03/27 09:23:45;;;;;;;9.15;2.20;;;;;;;;;;5067913;28;20056;-78
2023/03/27 09:26:36;;;;;;;8.13;2.10;;;;;;;;;;5089039;28;20064;-77
2023/03/27 09:29:18;;;;;;;14.32;2.08;;;;;;;;;;5092973;28;20055;-77
2023/03/27 09:31:57;;;;;;;7.45;2.10;;;;;;;;;;5071370;28;20052;-77
2023/03/27 09:34:32;;;;;;;12.05;1.95;;;;;;;;;;5071583;28;20062;-76
2023/03/27 09:37:15;;;;;;;15.27;2.00;;;;;;;;;;5089823;28;20043;-78
2023/03/27 09:39:51;;;;;;;7.57;1.80;;;;;;;;;;5071213;28;20126;-77
2023/03/27 09:42:38;;;;;;;6.88;2.10;;;;;;;;;;5071595;28;20055;-77
2023/03/27 09:45:12;;;;;;;10.35;2.20;;;;;;;;;;5071436;28;20511;-77
2023/03/27 09:48:02;;;;;;;6.68;2.10;;;;;;;;;;5071395;28;20052;-77
2023/03/27 09:50:46;;;;;;;7.50;1.88;;;;;;;;;;5070564;28;20056;-77
2023/03/27 09:53:34;;;;;;;7.78;1.90;;;;;;;;;;5070908;28;20335;-77
2023/03/27 09:56:19;;;;;;;9.02;2.10;;;;;;;;;;5071022;28;20056;-77
2023/03/27 09:58:54;;;;;;;11.18;3.58;;;;;;;;;;5070969;28;20048;-76
2023/03/27 10:01:33;;;;;;;3.75;1.80;;;;;;;;;;5070805;28;20044;-75
2023/03/27 10:04:21;;;;;;;7.28;2.03;;;;;;;;;;5070856;28;20471;-78
2023/03/27 10:07:00;;;;;;;7.28;2.35;;;;;;;;;;5071115;28;20533;-76
2023/03/27 10:10:12;;;;;;;9.52;2.25;;;;;;;;;;5050673;28;20056;-76
2023/03/27 10:13:17;;;;;;;15.70;2.72;;;;;;;;;;5034524;28;20396;-77
2023/03/27 10:16:04;;;;;;;11.60;2.38;;;;;;;;;;5075254;28;20044;-76
2023/03/27 10:18:57;;;;;;;13.00;5.35;;;;;;;;;;5091127;28;20063;-76
2023/03/27 10:21:38;;;;;;;12.48;2.67;;;;;;;;;;5090365;28;20055;-77
2023/03/27 10:24:39;;;;;;;13.13;3.25;;;;;;;;;;5090961;28;20051;-76
2023/03/27 10:27:25;;;;;;;;;;;;;;;;;;5091552;28;20398;-76
2023/03/27 10:30:33;;;;;;;10.20;2.40;;;;;;;;;;5087414;28;20425;-77
2023/03/27 10:33:40;;;;;;;5.10;2.58;;;;;;;;;;5090673;28;20055;-77
2023/03/27 10:36:34;;;;;;;7.68;2.75;;;;;;;;;;5108980;28;20058;-77
2023/03/27 10:39:13;;;;;;;12.20;3.25;;;;;;;;;;5090701;28;20137;-76
2023/03/27 10:42:09;;;;;;;5.43;2.60;;;;;;;;;;5107066;28;20066;-78
2023/03/27 10:44:47;;;;;;;11.82;2.80;;;;;;;;;;5090584;28;20051;-76
2023/03/27 10:47:39;;;;;;;13.15;3.58;;;;;;;;;;5109592;28;20052;-76
2023/03/27 10:50:17;;;;;;;7.93;2.63;;;;;;;;;;5090145;28;20414;-76
2023/03/27 10:53:03;;;;;;;11.32;2.92;;;;;;;;;;5090093;28;20070;-78
2023/03/27 10:55:53;;;;;;;13.57;3.28;;;;;;;;;;5090353;28;20413;-76
2023/03/27 10:58:31;;;;;;;11.38;3.08;;;;;;;;;;5090339;28;20509;-77
2023/03/27 11:01:18;;;;;;;5.28;2.35;;;;;;;;;;5089754;28;20409;-79
2023/03/27 11:04:02;;;;;;;11.18;2.40;;;;;;;;;;5090048;28;20055;-77
2023/03/27 11:06:42;;;;;;;11.35;1.83;;;;;;;;;;5089594;28;20067;-76
2023/03/27 11:09:22;;;;;;;9.77;1.75;;;;;;;;;;5089770;28;20086;-79
2023/03/27 11:12:15;;;;;;;10.75;2.00;;;;;;;;;;5090271;28;20047;-79
2023/03/27 11:15:20;;;;;;;6.95;1.70;;;;;;;;;;5083683;28;20052;-77
2023/03/27 11:18:20;;;;;;;11.15;2.00;;;;;;;;;;5077376;28;20044;-77
2023/03/27 11:21:04;;;;;;;5.90;1.52;;;;;;;;;;5070108;28;20052;-75
2023/03/27 11:23:54;;;;;;;9.13;1.90;;;;;;;;;;5076940;28;20440;-77
2023/03/27 11:26:46;;;;;;;9.15;1.50;;;;;;;;;;5069548;28;20052;-78
2023/03/27 11:29:27;;;;;;;7.97;1.40;;;;;;;;;;5069414;28;20044;-79
2023/03/27 11:32:33;;;;;;;10.55;1.55;;;;;;;;;;5077133;28;20048;-79
2023/03/27 11:35:14;;;;;;;10.15;2.10;;;;;;;;;;4998744;28;20048;-79
2023/03/27 11:38:06;;;;;;;7.38;1.48;;;;;;;;;;5069734;28;20052;-80
2023/03/27 11:40:48;;;;;;;5.95;1.42;;;;;;;;;;5065576;28;20052;-78
2023/03/27 11:43:21;;;;;;;4.43;1.30;;;;;;;;;;5068520;28;20040;-76
2023/03/27 11:46:19;;;;;;;7.65;1.50;;;;;;;;;;5065426;28;20106;-76
2023/03/27 11:48:55;;;;;;;8.38;1.65;;;;;;;;;;5066168;28;20056;-78
2023/03/27 11:51:49;;;;;;;9.48;1.70;;;;;;;;;;5065379;28;20048;-77
2023/03/27 11:54:41;;;;;;;11.30;1.33;;;;;;;;;;5065785;28;20052;-78
2023/03/27 11:57:26;;;;;;;11.77;1.75;;;;;;;;;;5065036;28;20052;-78
2023/03/27 12:00:24;;;;;;;8.38;1.90;;;;;;;;;;5065845;28;20052;-76
2023/03/27 12:03:36;;;;;;;9.52;1.50;;;;;;;;;;5067407;28;20060;-76
2023/03/27 12:06:40;;;;;;;7.93;1.45;;;;;;;;;;5060427;28;20419;-79
2023/03/27 12:09:38;;;;;;;11.77;1.50;;;;;;;;;;5064758;28;20048;-77
2023/03/27 12:12:59;;;;;;;14.50;1.60;;;;;;;;;;5012349;28;20073;-78
2023/03/27 12:15:51;;;;;;;11.32;1.80;;;;;;;;;;5065148;28;20055;-76
2023/03/27 12:18:45;;;;;;;12.85;1.60;;;;;;;;;;5065172;28;20503;-77
2023/03/27 12:21:48;;;;;;;12.05;2.05;;;;;;;;;;5064949;28;20049;-78
2023/03/27 12:24:48;;;;;;;12.82;1.90;;;;;;;;;;5064317;28;20056;-76
2023/03/27 12:28:11;;;;;;;;;;;;;;;;;;5029570;28;20064;-79
2023/03/27 12:31:35;;;;;;;8.18;1.98;;;;;;;;;;5065236;28;19921;-78
2023/03/27 12:34:20;;;;;;;15.45;1.80;;;;;;;;;;5065546;28;20052;-78
2023/03/27 12:36:52;;;;;;;10.75;1.63;;;;;;;;;;5065430;28;20048;-76
2023/03/27 12:39:27;;;;;;;9.23;1.95;;;;;;;;;;5064867;28;20063;-78
2023/03/27 12:42:14;;;;;;;9.65;1.60;;;;;;;;;;5065099;28;20048;-79
2023/03/27 12:45:13;;;;;;;9.48;1.40;;;;;;;;;;5064542;28;20049;-77
2023/03/27 12:48:11;;;;;;;13.10;2.10;;;;;;;;;;5066691;28;20052;-77
2023/03/27 12:50:43;;;;;;;12.85;2.65;;;;;;;;;;5065326;28;20516;-79
2023/03/27 12:53:26;;;;;;;9.88;1.60;;;;;;;;;;5066639;28;20442;-76
2023/03/27 12:56:12;;;;;;;12.07;1.60;;;;;;;;;;5066487;28;20036;-78
2023/03/27 12:58:46;;;;;;;11.48;1.42;;;;;;;;;;5065435;28;20052;-80
2023/03/27 13:01:41;;;;;;;10.75;1.52;;;;;;;;;;5066632;28;20049;-79
2023/03/27 13:04:32;;;;;;;6.25;1.40;;;;;;;;;;5064855;28;20049;-78
2023/03/27 13:07:18;;;;;;;9.77;1.60;;;;;;;;;;5068421;28;20542;-75
2023/03/27 13:10:23;;;;;;;7.97;1.50;;;;;;;;;;5069686;28;20514;-77
2023/03/27 13:13:06;;;;;;;7.85;1.67;;;;;;;;;;5068841;28;20044;-75
2023/03/27 13:15:52;;;;;;;10.88;2.05;;;;;;;;;;5068899;28;20074;-79
2023/03/27 13:18:45;;;;;;;8.43;1.92;;;;;;;;;;5068553;28;20064;-77
2023/03/27 13:21:36;;;;;;;12.63;1.67;;;;;;;;;;5052950;28;20052;-77
2023/03/27 13:24:32;;;;;;;7.03;1.83;;;;;;;;;;5068868;28;20610;-75
2023/03/27 13:27:21;;;;;;;8.18;1.55;;;;;;;;;;5068543;28;20511;-79
2023/03/27 13:29:52;;;;;;;7.75;1.77;;;;;;;;;;5069148;28;20056;-79
2023/03/27 13:32:41;;;;;;;9.73;1.55;;;;;;;;;;5068307;28;20506;-78
2023/03/27 13:35:39;;;;;;;9.18;1.92;;;;;;;;;;5069915;28;20059;-76
2023/03/27 13:38:13;;;;;;;8.55;1.58;;;;;;;;;;5068599;28;20067;-79
2023/03/27 13:41:36;;;;;;;10.93;1.50;;;;;;;;;;5068677;28;20052;-76
2023/03/27 13:44:39;;;;;;;12.75;1.90;;;;;;;;;;5067922;28;20045;-79
2023/03/27 13:47:28;;;;;;;8.68;1.50;;;;;;;;;;5068736;28;20423;-78
2023/03/27 13:50:26;;;;;;;10.70;1.88;;;;;;;;;;5067829;28;20056;-77
2023/03/27 13:53:27;;;;;;;7.82;1.55;;;;;;;;;;5067797;28;20056;-79
2023/03/27 13:56:25;;;;;;;8.75;1.63;;;;;;;;;;5067899;28;20052;-76
2023/03/27 13:59:49;;;;;;;9.93;1.60;;;;;;;;;;5067524;28;20068;-79
2023/03/27 14:03:06;;;;;;;12.70;1.60;;;;;;;;;;5066352;28;20056;-79
2023/03/27 14:06:11;;;;;;;10.45;1.85;;;;;;;;;;5069306;28;20055;-78
2023/03/27 14:09:09;;;;;;;12.55;1.45;;;;;;;;;;5068889;28;20044;-78
2023/03/27 14:12:44;;;;;;;8.20;1.58;;;;;;;;;;5008402;28;20053;-76
2023/03/27 14:16:07;;;;;;;11.18;1.60;;;;;;;;;;5006672;28;20054;-78
2023/03/27 14:19:08;;;;;;;9.13;1.63;;;;;;;;;;5067064;28;20047;-79
2023/03/27 14:22:03;;;;;;;9.80;1.50;;;;;;;;;;5067632;28;20056;-78
2023/03/27 14:24:59;;;;;;;9.45;1.35;;;;;;;;;;5067396;28;20060;-78
2023/03/27 14:27:41;;;;;;;8.07;1.45;;;;;;;;;;5066992;28;20052;-81
2023/03/27 14:30:14;;;;;;;5.63;1.23;;;;;;;;;;5067449;28;20063;-81
2023/03/27 14:32:54;;;;;;;10.50;1.45;;;;;;;;;;5067630;28;20065;-80
2023/03/27 14:35:34;;;;;;;5.80;1.27;;;;;;;;;;5066686;28;20056;-77
2023/03/27 14:38:23;;;;;;;4.28;1.13;;;;;;;;;;5067251;28;20055;-77
2023/03/27 14:41:00;;;;;;;9.50;1.80;;;;;;;;;;5067653;28;20061;-81
2023/03/27 14:43:49;;;;;;;8.43;1.50;;;;;;;;;;5067303;28;20645;-80
2023/03/27 14:46:22;;;;;;;8.48;1.70;;;;;;;;;;5066831;28;20423;-80
2023/03/27 14:48:58;;;;;;;7.20;1.40;;;;;;;;;;5067008;28;20060;-78
2023/03/27 14:51:40;;;;;;;8.32;1.80;;;;;;;;;;5067149;28;20071;-76
2023/03/27 14:54:29;;;;;;;7.40;1.27;;;;;;;;;;5066249;28;20055;-78
2023/03/27 14:57:14;;;;;;;9.57;1.20;;;;;;;;;;5068654;28;20111;-76
2023/03/27 14:59:56;;;;;;;7.15;1.33;;;;;;;;;;5067170;28;20052;-80
2023/03/27 15:02:33;;;;;;;8.00;1.42;;;;;;;;;;5067423;28;20048;-77
2023/03/27 15:05:11;;;;;;;7.57;1.20;;;;;;;;;;5067044;28;20060;-78
2023/03/27 15:07:47;;;;;;;8.63;1.55;;;;;;;;;;5066732;28;20052;-80
2023/03/27 15:10:38;;;;;;;5.22;1.58;;;;;;;;;;5067191;28;20079;-77
2023/03/27 15:13:37;;;;;;;8.07;1.42;;;;;;;;;;5074442;28;20048;-77
2023/03/27 15:16:19;;;;;;;7.75;1.50;;;;;;;;;;5067394;28;20523;-78
2023/03/27 15:19:24;;;;;;;6.35;1.42;;;;;;;;;;5067067;28;20534;-78
2023/03/27 15:22:01;;;;;;;6.20;1.20;;;;;;;;;;5031222;28;20056;-79
2023/03/27 15:24:43;;;;;;;8.32;1.30;;;;;;;;;;5068041;28;20052;-82
2023/03/27 15:27:36;;;;;;;6.93;1.50;;;;;;;;;;5068523;28;20040;-77
2023/03/27 15:30:30;;;;;;;6.97;1.40;;;;;;;;;;5068438;28;20048;-77
2023/03/27 15:33:03;;;;;;;5.82;1.17;;;;;;;;;;5067710;28;20511;-79
2023/03/27 15:35:41;;;;;;;5.95;1.42;;;;;;;;;;5067641;28;20419;-78
2023/03/27 15:38:15;;;;;;;7.65;1.40;;;;;;;;;;5068119;28;20059;-79
2023/03/27 15:40:50;;;;;;;7.55;1.23;;;;;;;;;;5085445;28;20419;-78
2023/03/27 15:43:23;;;;;;;10.15;1.58;;;;;;;;;;5088092;28;20483;-77
2023/03/27 15:46:25;;;;;;;6.68;1.30;;;;;;;;;;5088306;28;20040;-77
2023/03/27 15:48:56;;;;;;;6.10;1.50;;;;;;;;;;5073526;28;20423;-81
2023/03/27 15:51:25;;;;;;;6.65;1.27;;;;;;;;;;5088691;28;20052;-79
2023/03/27 15:53:57;;;;;;;8.27;1.42;;;;;;;;;;5087880;28;20047;-83
2023/03/27 15:56:43;;;;;;;11.57;1.35;;;;;;;;;;5069603;28;20048;-76
2023/03/27 15:59:15;;;;;;;6.10;1.33;;;;;;;;;;5069580;28;20044;-78
2023/03/27 16:02:09;;;;;;;6.28;1.15;;;;;;;;;;5087101;28;20059;-80
2023/03/27 16:04:42;;;;;;;6.78;1.00;;;;;;;;;;5069062;28;20062;-77
2023/03/27 16:07:18;;;;;;;8.00;1.15;;;;;;;;;;5087196;28;20039;-81
2023/03/27 16:09:57;;;;;;;8.60;1.42;;;;;;;;;;5087386;28;20403;-78
2023/03/27 16:12:47;;;;;;;6.80;1.20;;;;;;;;;;5069644;28;20039;-79
2023/03/27 16:15:41;;;;;;;5.72;1.15;;;;;;;;;;5070046;28;20040;-79